Russell, KS

5:38 PM CST on February 11, 2016 (GMT -0600)
Ruppenthal Middle School | | Change Station
CLOSE
Current Station
Personal Weather Station
Location: Russell, KS
Elevation: 1854 ft
Nearby Weather Stations

Elev 1854 ft 38.89 °N, 98.86 °W | Updated 3 minutes ago

Clear
Clear
44.1 °F
Feels Like 44 °F
N
0.0
Wind Variable Wind from SSE
Gusts 5.0 mph

Today
High -- | Low -- °F
--% Chance of Precip.
Yesterday
High -- | Low -- °F
Precip. -- in
Pressure 30.12 in
Visibility 10.0 miles
Clouds Clear
Windchill 44 °F
Dew Point 34 °F
Humidity 66%
Rainfall 0.00 in
Snow Depth Not available.
7:31 AM 6:07 PM
Waxing Crescent, 15% visible
METAR KRSL 112253Z AUTO 15011KT 10SM CLR 06/00 A3008 RMK AO2 SLP199 T00610000
Pressure 30.12 in
Visibility 10.0 miles
Clouds Clear
Windchill 44 °F
Dew Point 34 °F
Humidity 66%
Rainfall 0.00 in
Snow Depth Not available.
7:31 AM 6:07 PM
Waxing Crescent, 15% visible
METAR KRSL 112253Z AUTO 15011KT 10SM CLR 06/00 A3008 RMK AO2 SLP199 T00610000

10-Day Weather Forecast

Almanac

Astronomy

Feb. 11, 2016 Rise Set
Actual Time
Civil Twilight
Nautical Twilight
Astronomical Twilight
Moon
Length of Visible Light
Length of Day
Tomorrow will be .
, % of the Moon is Illuminated

Today's Extremes

State Highs State Lows

Community

WunderPhotos

Upload Photos

1,892,181 photos uploaded!

WunderBlog® & News

Nearby

Air Quality

  Air Quality AQ Index Pollutant
Not available.

Snow Depth

Station Depth Elevation

Earthquake Activity

City Distance Mag. Time & Date
Minimum magnitude displayed is 2.5.

Coastal Water Temperatures

Place Temperature

Stations

Nearby Weather Stations

Station Location Temp. Windchill Dew Point Humidity Wind Precip. Elev Updated Type
                   

Watches & Warnings

There are currently no watches in effect.